Main page
METAR-TAF:

METAR-TAF

Airports :

NWS Office

Majuro, Marshall Islands

latitude: 07-05N, longitude: 171-12E, elevation: 4 m

Current weather observation

The report was made 20 minutes ago, at 13:52 UTC
Wind 9 kt from the East
Temperature 28°C
Humidity 84%
Pressure 1009 hPa
Visibility: 24.1 km
Few clouds at a height of 1500 ft
Scattered clouds at a height of 5000 ft
Scattered clouds at a height of 12000 ft
Overcast at a height of 30000 ft

METAR: PKMR 291352Z 10009KT 15SM FEW015 SCT050 SCT120 OVC300 28/25 A2981 RMK SLP097 T02770250

Time: 02:12 (14:12 UTC)


TAF: missing

Weather observations and forecasts of more than 4000 airports (METAR and TAF reports).

The available stations are represented by yellow and red dots on the map.

Hover mouse over dot to see the name of the station.

Then click to see weather observations and forecasts.

To change the map : click on the green buttons with a black cross to zoom in, on the green button with a dash to zoom out, or on the green arrows for adjacent maps.


METAR-TAF: